Flight Track Log - Related Links

Times and Time Zones

All times are in EDT time to prevent confusion due to time zone crossing. See the N260NC flight status page for this flight to view local times or setup timezone preferences in your user account.


Time Position Orientation Groundspeed Altitude Reporting Facility
EDT Latitude Longitude Course Direction KTS MPH feet Rate Location/Type
Sun 12:03:03 PM 38.7000 -84.5333 270° West 110 127 2,000  Level Cincinnati TRACON
Sun 12:04:03 PM 38.7000 -84.5833 270° West 122 140 2,000 250 Level Cincinnati TRACON
Sun 12:05:03 PM 38.7167 -84.6167 303° West 111 128 2,500 550 Climbing Cincinnati TRACON
Sun 12:06:03 PM 38.7167 -84.6500 270° West 104 120 3,100 600 Climbing Cincinnati TRACON
Sun 12:07:03 PM 38.7333 -84.6833 303° West 101 116 3,700 600 Climbing Cincinnati TRACON
Sun 12:08:03 PM 38.7333 -84.7167 270° West 105 121 4,300 579 Climbing Cincinnati TRACON
Sun 12:08:57 PM 38.7339 -84.7522 271° West 118 136 4,800 517 Climbing Indianapolis Center
Sun 12:09:59 PM 38.7356 -84.7903 273° West 107 123 5,300 532 Climbing Indianapolis Center
Sun 12:11:01 PM 38.7392 -84.8317 276° West 110 127 5,900 488 Climbing Indianapolis Center
Sun 12:12:02 PM 38.7428 -84.8708 277° West 112 129 6,300 488 Climbing Indianapolis Center
Sun 12:13:04 PM 38.7472 -84.9100 278° West 112 129 6,900 532 Climbing Indianapolis Center
Sun 12:14:06 PM 38.7503 -84.9492 276° West 111 128 7,400 435 Climbing Indianapolis Center
Sun 12:15:08 PM 38.7572 -84.9869 283° West 110 127 7,800 341 Climbing Indianapolis Center
Sun 12:16:09 PM 38.7575 -85.0383 270° West 121 139 8,100 146 Climbing Indianapolis Center
Sun 12:17:11 PM 38.7542 -85.0878 265° West 137 158 8,100  Level Indianapolis Center
Sun 12:18:13 PM 38.7553 -85.1386 272° West 143 165 8,100  Level Indianapolis Center
Sun 12:19:15 PM 38.7644 -85.1883 283° West 144 166 8,100  Level Indianapolis Center
Sun 12:20:16 PM 38.7800 -85.2347 293° West 142 163 8,100  Level Indianapolis Center
Sun 12:21:18 PM 38.7950 -85.2797 293° West 139 160 8,100  Level Indianapolis Center
Sun 12:22:20 PM 38.8028 -85.3303 281° West 143 165 8,100  Level Indianapolis Center
Sun 12:23:21 PM 38.8061 -85.3911 274° West 143 165 8,100  Level Indianapolis Center
Sun 12:24:23 PM 38.8106 -85.4411 277° West 141 162 8,100  Level Indianapolis Center
Sun 12:25:25 PM 38.8181 -85.4883 282° West 137 158 8,100  Level Indianapolis Center
Sun 12:26:27 PM 38.8228 -85.5361 277° West 137 158 8,100  Level Indianapolis Center
Sun 12:27:28 PM 38.8233 -85.5850 271° West 136 157 8,100  Level Indianapolis Center
Sun 12:28:30 PM 38.8200 -85.6331 265° West 135 155 8,100  Level Indianapolis Center
Sun 12:29:32 PM 38.8072 -85.6806 251° West 139 160 8,100  Level Indianapolis Center
Sun 12:30:33 PM 38.7939 -85.7364 253° West 139 160 8,100  Level Indianapolis Center
Sun 12:31:35 PM 38.7831 -85.7828 253° West 138 159 8,100  Level Indianapolis Center
Sun 12:32:37 PM 38.7717 -85.8289 252° West 137 158 8,100  Level Indianapolis Center
Sun 12:33:39 PM 38.7683 -85.8783 265° West 141 162 8,100  Level Indianapolis Center
Sun 12:34:40 PM 38.7700 -85.9289 272° West 141 162 8,100  Level Indianapolis Center
Sun 12:35:42 PM 38.7708 -85.9789 271° West 140 161 8,100  Level Indianapolis Center
Sun 12:36:44 PM 38.7703 -86.0281 269° West 138 159 8,100  Level Indianapolis Center
Sun 12:37:46 PM 38.7772 -86.0881 278° West 141 162 8,100  Level Indianapolis Center
Sun 12:38:47 PM 38.7825 -86.1389 278° West 143 165 8,100  Level Indianapolis Center
Sun 12:39:49 PM 38.7831 -86.1875 271° West 139 160 8,100  Level Indianapolis Center
Sun 12:40:51 PM 38.7825 -86.2369 269° West 138 159 8,100  Level Indianapolis Center
Sun 12:41:53 PM 38.7831 -86.2883 271° West 142 163 8,100  Level Indianapolis Center
Sun 12:42:55 PM 38.7822 -86.3386 269° West 141 162 8,100  Level Indianapolis Center
Sun 12:43:57 PM 38.7836 -86.3903 272° West 144 166 8,100  Level Indianapolis Center
Sun 12:44:58 PM 38.7831 -86.4400 269° West 142 163 8,100  Level Indianapolis Center
Sun 12:46:00 PM 38.7831 -86.4992 270° West 139 160 8,100  Level Indianapolis Center
Sun 12:47:02 PM 38.7839 -86.5503 271° West 140 161 8,100  Level Indianapolis Center
Sun 12:48:04 PM 38.7839 -86.6000 270° West 140 161 8,100  Level Indianapolis Center
Sun 12:49:06 PM 38.7839 -86.6497 270° West 140 161 8,100  Level Indianapolis Center
Sun 12:50:07 PM 38.7828 -86.6994 268° West 140 161 8,100  Level Indianapolis Center
Sun 12:51:09 PM 38.7839 -86.7494 272° West 140 161 8,100  Level Indianapolis Center
Sun 12:52:11 PM 38.7839 -86.7989 270° West 140 161 8,100  Level Indianapolis Center
Sun 12:53:13 PM 38.7836 -86.8481 270° West 138 159 8,100  Level Indianapolis Center
Sun 12:54:15 PM 38.7836 -86.9058 270° West 136 157 8,100 -48 Level Indianapolis Center
Sun 12:55:17 PM 38.7836 -86.9550 270° West 137 158 8,000 -48 Descending Indianapolis Center
Sun 12:56:19 PM 38.7833 -87.0039 270° West 137 158 8,000  Level Indianapolis Center
Sun 12:57:21 PM 38.7825 -87.0525 269° West 137 158 8,000  Level Indianapolis Center
Sun 12:58:23 PM 38.7831 -87.1006 271° West 136 157 8,000  Level Indianapolis Center
Sun 12:59:25 PM 38.7822 -87.1506 269° West 139 160 8,000  Level Indianapolis Center
Sun 01:00:27 PM 38.7819 -87.2094 270° West 139 160 8,000  Level Indianapolis Center
Sun 01:01:29 PM 38.7825 -87.2586 271° West 138 159 8,000 48 Level Indianapolis Center
Sun 01:02:31 PM 38.7822 -87.3078 270° West 139 160 8,100 48 Climbing Indianapolis Center
Sun 01:03:33 PM 38.7825 -87.3578 270° West 139 160 8,100  Level Indianapolis Center
Sun 01:04:35 PM 38.7825 -87.4086 270° West 141 162 8,100  Level Indianapolis Center
Sun 01:05:37 PM 38.7817 -87.4572 269° West 139 160 8,100  Level Indianapolis Center
Sun 01:06:39 PM 38.7819 -87.5081 270° West 141 162 8,100  Level Indianapolis Center
Sun 01:07:41 PM 38.7814 -87.5683 269° West 141 162 8,100  Level Indianapolis Center
Sun 01:08:43 PM 38.7808 -87.6189 269° West 142 163 8,100  Level Indianapolis Center
Sun 01:09:45 PM 38.7800 -87.6686 269° West 140 161 8,100  Level Indianapolis Center
Sun 01:10:47 PM 38.7806 -87.7192 271° West 140 161 8,100  Level Indianapolis Center
Sun 01:11:49 PM 38.7803 -87.7697 270° West 141 162 8,100  Level Indianapolis Center
Sun 01:12:50 PM 38.7783 -87.8231 267° West 146 168 8,100  Level Indianapolis Center
Sun 01:13:52 PM 38.7786 -87.8758 270° West 148 170 8,100  Level Indianapolis Center
Sun 01:14:54 PM 38.7792 -87.9375 271° West 145 167 8,100  Level Indianapolis Center
Sun 01:15:56 PM 38.7778 -87.9903 268° West 148 170 8,100  Level Indianapolis Center
Sun 01:16:58 PM 38.7775 -88.0422 270° West 146 168 8,100  Level Indianapolis Center
Sun 01:18:00 PM 38.7769 -88.0950 269° West 147 169 8,100  Level Indianapolis Center
Sun 01:19:08 PM 38.7764 -88.1483 269° West 147 169 8,100  Level Kansas City Center
Sun 01:20:11 PM 38.7761 -88.2103 270° West 145 167 8,100  Level Kansas City Center
Sun 01:21:12 PM 38.7750 -88.2631 268° West 146 168 8,100  Level Kansas City Center
Sun 01:22:15 PM 38.7739 -88.3172 269° West 150 173 8,100  Level Kansas City Center
Sun 01:23:15 PM 38.7742 -88.3686 270° West 146 168 8,100  Level Kansas City Center
Sun 01:24:19 PM 38.7731 -88.4219 268° West 148 170 8,100  Level Kansas City Center
Sun 01:25:19 PM 38.7725 -88.4744 269° West 148 170 8,100  Level Kansas City Center
Sun 01:26:23 PM 38.7717 -88.5272 269° West 148 170 8,100  Level Kansas City Center
Sun 01:27:24 PM 38.7719 -88.5903 270° West 146 168 8,100  Level Kansas City Center
Sun 01:28:25 PM 38.7700 -88.6375 267° West 148 170 8,100  Level Kansas City Center
Sun 01:29:28 PM 38.7689 -88.6908 268° West 149 171 8,100  Level Kansas City Center
Sun 01:30:32 PM 38.7672 -88.7536 268° West 148 170 8,100  Level Kansas City Center
Sun 01:31:33 PM 38.7681 -88.8056 271° West 146 168 8,100  Level Kansas City Center
Sun 01:32:34 PM 38.7656 -88.8583 267° West 148 170 8,100  Level Kansas City Center
Sun 01:33:35 PM 38.7639 -88.9117 268° West 149 171 8,100  Level Kansas City Center
Sun 01:34:40 PM 38.7644 -88.9656 271° West 151 174 8,100  Level Kansas City Center
Sun 01:35:40 PM 38.7633 -89.0272 269° West 151 174 8,100  Level Kansas City Center
Sun 01:36:41 PM 38.7617 -89.0836 268° West 148 170 8,100  Level Kansas City Center
Sun 01:37:45 PM 38.7608 -89.1372 269° West 149 171 8,100 -240 Level Kansas City Center
Sun 01:38:46 PM 38.7597 -89.1975 269° West 157 181 7,600 -432 Descending Kansas City Center
Sun 01:39:50 PM 38.7589 -89.2550 269° West 161 185 7,200 -435 Descending Kansas City Center
Sun 01:40:50 PM 38.7575 -89.3114 268° West 159 183 6,700 -545 Descending Kansas City Center
Sun 01:41:51 PM 38.7567 -89.3719 269° West 158 182 6,100 -480 Descending Kansas City Center
Sun 01:42:55 PM 38.7558 -89.4258 269° West 153 176 5,700 -384 Descending Kansas City Center
Sun 01:43:56 PM 38.7539 -89.4844 268° West 154 177 5,300 -295 Descending Kansas City Center
Sun 01:44:57 PM 38.7525 -89.5389 268° West 153 176 5,100 -96 Descending Kansas City Center
Sun 01:46:01 PM 38.7514 -89.5944 269° West 147 169 5,100 -48 Level Kansas City Center
Sun 01:47:01 PM 38.7494 -89.6492 267° West 154 177 5,000 -290 Descending Kansas City Center
Sun 01:48:05 PM 38.7200 -89.6850 224° Southwest 161 185 4,500 -387 Descending Kansas City Center
Sun 01:49:05 PM 38.6839 -89.7339 227° Southwest 160 184 4,200 -194 Descending Kansas City Center
Sun 01:50:09 PM 38.6553 -89.7717 226° Southwest 155 178 4,100 -48 Descending Kansas City Center
Sun 01:51:10 PM 38.6272 -89.8119 228° Southwest 152 175 4,100  Level Kansas City Center
Sun 01:52:14 PM 38.5983 -89.8533 228° Southwest 154 177 4,100  Level Kansas City Center
Sun 01:53:15 PM 38.5744 -89.8989 236° Southwest 154 177 4,100  Level Kansas City Center
Sun 01:54:18 PM 38.5494 -89.9444 235° Southwest 155 178 4,100 -97 Level Kansas City Center
Sun 01:55:19 PM 38.5222 -90.0014 239° Southwest 155 178 3,900 -248 Descending Kansas City Center
Sun 01:56:19 PM 38.5064 -90.0481 247° West 150 173 3,600 -339 Descending Kansas City Center
Sun 01:57:23 PM 38.4911 -90.0922 246° West 143 165 3,200 -238 Descending Kansas City Center
Sun 01:58:25 PM 38.4744 -90.1358 244° Southwest 139 160 3,100 -48 Descending Kansas City Center
Sun 01:59:28 PM 38.4567 -90.1817 244° Southwest 140 161 3,100 -48 Level Kansas City Center
Sun 02:00:29 PM 38.4372 -90.2319 244° Southwest 143 165 3,000 -98 Descending Kansas City Center

Login

Don't have an account? Register now (free) for customized features, flight alerts, and more!